Latest Weather Observations for Latrobe Valley

IDV60801

Issued at 4:02 am EDT Saturday 7 March 2015 (issued every 30 minutes, with the page automatically refreshed every 10 minutes)

About weather observations | Map of weather stations | Latest weather observations for VIC | Other Formats
Station Details ID: 085280 Name: LATROBE VALLEY AIRPORT Lat: -38.21 Lon: 146.47 Height: 55.7 m
Data from the previous 72 hours. | See also: Recent months at Latrobe Valley
Date/Time
EDT
Temp
°C
App
Temp
°C
Dew
Point
Rel
Hum
%
Delta-T
°C
Wind Press
QNH
hPa
Press
MSL
hPa
Rain
since 9 am
mm
Dir
 
Spd
km/h
Gust
km/h
Spd
kts
Gust
kts
07/04:00am 14.8 13.1 14.8 100 0.0 WNW 17 22 9 12 1010.4 1010.3 1.6
07/03:41am 15.0 13.3 14.8 99 0.1 WNW 17 22 9 12 1010.4 1010.3 1.6
07/03:30am 15.3 14.0 14.7 96 0.3 WNW 15 20 8 11 1010.5 1010.4 1.6
07/03:10am 15.3 13.1 14.3 94 0.6 W 19 28 10 15 1010.6 1010.5 1.6
07/03:00am 15.3 13.6 14.7 96 0.3 W 17 22 9 12 1010.6 1010.5 1.6
07/02:30am 15.2 13.9 14.7 97 0.3 W 15 22 8 12 1010.6 1010.5 1.6
07/02:22am 15.1 14.2 14.8 98 0.2 W 13 19 7 10 1010.8 1010.7 1.6
07/02:12am 15.0 13.8 15.0 100 0.0 W 15 19 8 10 1010.9 1010.8 1.6
07/02:00am 15.2 13.9 14.7 97 0.3 WNW 15 22 8 12 1010.9 1010.8 1.6
07/01:36am 15.1 13.8 14.8 98 0.2 W 15 19 8 10 1011.2 1011.1 1.6
07/01:30am 15.1 13.4 14.6 97 0.3 W 17 22 9 12 1011.1 1011.0 1.6
07/01:00am 15.0 12.5 14.2 95 0.5 W 20 26 11 14 1011.0 1010.9 1.6
07/12:30am 14.6 12.7 14.1 97 0.3 W 17 24 9 13 1011.1 1011.0 1.6
07/12:00am 15.1 12.6 14.0 93 0.6 WNW 20 28 11 15 1011.4 1011.3 1.6
 
Date/Time
EDT
Temp
°C
App
Temp
°C
Dew
Point
Rel
Hum
%
Delta-T
°C
Wind Press
QNH
hPa
Press
MSL
hPa
Rain
since 9 am
mm
Dir
 
Spd
km/h
Gust
km/h
Spd
kts
Gust
kts
06/11:30pm 15.1 12.7 13.8 92 0.7 WNW 19 24 10 13 1011.5 1011.4 1.6
06/11:00pm 14.5 11.8 13.0 91 0.8 W 19 24 10 13 1011.3 1011.2 1.6
06/10:30pm 15.3 12.5 13.1 87 1.2 W 20 30 11 16 1011.5 1011.4 1.6
06/10:00pm 15.1 12.3 13.1 88 1.1 W 20 28 11 15 1011.6 1011.5 1.6
06/09:30pm 15.2 11.8 12.5 84 1.5 W 22 28 12 15 1011.4 1011.3 1.6
06/09:00pm 15.6 11.8 12.5 82 1.7 WSW 24 30 13 16 1011.0 1010.9 1.6
06/08:30pm 15.7 12.7 12.6 82 1.7 WSW 20 32 11 17 1010.8 1010.7 1.6
06/08:00pm 15.6 10.7 12.7 83 1.6 WSW 30 37 16 20 1010.4 1010.3 1.6
06/07:30pm 16.0 11.7 13.1 83 1.6 WSW 28 41 15 22 1010.0 1009.9 1.6
06/07:00pm 16.8 11.1 13.1 79 2.1 WSW 35 43 19 23 1009.8 1009.7 1.6
06/06:50pm 16.9 12.5 12.8 77 2.3 WSW 28 48 15 26 1009.6 1009.5 1.6
06/06:30pm 16.5 11.6 13.8 84 1.5 WSW 32 44 17 24 1009.5 1009.4 1.6
06/06:00pm 17.1 11.1 13.2 78 2.2 WSW 37 52 20 28 1009.2 1009.1 1.6
06/05:30pm 18.4 12.3 14.1 76 2.5 WSW 39 50 21 27 1008.9 1008.8 1.6
06/05:00pm 17.7 11.0 13.4 76 2.4 WSW 41 56 22 30 1008.5 1008.4 1.6
06/04:56pm 20.1 14.3 13.8 67 3.6 WSW 37 56 20 30 1008.5 1008.4 1.6
06/04:30pm 18.1 11.5 13.6 75 2.6 WSW 41 54 22 29 1008.2 1008.1 1.6
06/04:00pm 20.3 15.0 14.2 68 3.6 WSW 35 48 19 26 1008.2 1008.1 1.6
06/03:30pm 19.5 12.3 13.2 67 3.6 SW 43 52 23 28 1008.1 1008.0 1.6
06/03:00pm 19.2 12.8 14.2 73 2.9 WSW 41 50 22 27 1008.0 1007.9 1.6
06/02:30pm 19.3 13.6 14.3 73 2.9 WSW 37 50 20 27 1008.1 1008.0 1.6
06/02:05pm 18.3 12.4 14.6 79 2.1 WSW 39 57 21 31 1008.1 1008.0 1.6
06/02:00pm 18.3 12.5 15.0 81 1.9 WSW 39 52 21 28 1008.0 1007.9 1.6
06/01:33pm 19.0 14.2 16.6 86 1.4 WSW 37 56 20 30 1008.0 1007.9 1.6
06/01:30pm 18.5 13.8 16.8 90 1.0 WSW 37 50 20 27 1008.0 1007.9 1.6
06/01:15pm 17.0 10.9 15.3 90 1.0 WSW 41 61 22 33 1007.9 1007.8 1.6
06/01:03pm 16.8 11.3 16.8 100 0.0 WSW 41 59 22 32 1008.2 1008.1 1.6
06/01:00pm 16.5 10.3 16.5 100 0.0 WSW 44 59 24 32 1008.3 1008.2 1.6
06/12:50pm 16.5 10.8 15.2 92 0.8 WSW 39 59 21 32 1007.9 1007.8 1.2
06/12:47pm 17.9 13.4 15.5 86 1.4 WSW 33 52 18 28 1007.9 1007.8 1.2
06/12:33pm 16.4 11.9 15.4 94 0.6 WSW 33 48 18 26 1008.1 1008.0 1.2
06/12:30pm 16.5 12.2 15.5 94 0.6 W 32 46 17 25 1007.9 1007.8 1.2
06/12:00pm 16.3 12.7 16.3 100 0.0 WNW 30 46 16 25 1008.1 1008.0 1.2
06/11:47am 16.7 13.1 16.2 97 0.3 W 30 41 16 22 1008.0 1007.9 1.2
06/11:41am 16.5 12.4 16.5 100 0.0 W 33 44 18 24 1008.1 1008.0 1.2
06/11:30am 15.5 11.2 15.5 100 0.0 W 32 43 17 23 1007.9 1007.8 1.2
06/11:22am 15.2 11.2 15.2 100 0.0 W 30 43 16 23 1007.8 1007.7 1.2
06/11:07am 14.7 9.9 14.7 100 0.0 W 33 44 18 24 1007.9 1007.8 1.0
06/11:00am 14.5 9.7 14.5 100 0.0 W 33 44 18 24 1007.8 1007.7 1.0
06/10:30am 14.0 7.9 14.0 100 0.0 W 39 54 21 29 1007.6 1007.5 0.4
06/10:00am 14.0 9.2 14.0 100 0.0 WNW 32 43 17 23 1007.5 1007.4 0.0
06/09:32am 13.6 8.0 13.3 98 0.2 WNW 35 46 19 25 1007.2 1007.1 0.0
06/09:30am 13.6 7.9 13.1 97 0.3 WNW 35 50 19 27 1007.3 1007.2 0.0
06/09:11am 13.4 6.8 12.5 94 0.5 WNW 39 59 21 32 1007.1 1007.0 0.0
06/09:03am 13.8 6.6 11.8 88 1.1 WNW 41 59 22 32 1006.9 1006.8 0.0
06/09:00am 13.8 6.6 11.8 88 1.1 WNW 41 57 22 31 1007.1 1007.0 0.0
06/08:33am 13.5 6.5 11.4 87 1.1 WNW 39 57 21 31 1006.8 1006.7 0.0
06/08:30am 13.5 6.5 11.4 87 1.1 WNW 39 57 21 31 1006.5 1006.4 0.0
06/08:23am 13.6 7.3 11.1 85 1.3 WNW 35 54 19 29 1006.4 1006.3 0.0
06/08:00am 13.2 5.2 11.1 87 1.1 WNW 44 57 24 31 1006.3 1006.2 0.0
06/07:48am 13.0 6.3 10.9 87 1.1 WNW 37 56 20 30 1006.3 1006.2 0.0
06/07:31am 12.6 6.3 11.2 91 0.7 WNW 35 50 19 27 1006.5 1006.4 0.0
06/07:30am 12.6 6.3 11.2 91 0.7 WNW 35 50 19 27 1006.5 1006.4 0.0
06/07:14am 12.9 5.3 10.6 86 1.2 WNW 41 57 22 31 1006.1 1006.0 0.0
06/07:00am 12.8 5.5 10.2 84 1.3 W 39 57 21 31 1006.2 1006.1 0.0
06/06:35am 13.2 4.8 9.6 79 1.8 W 44 63 24 34 1006.2 1006.1 0.0
06/06:30am 13.3 5.0 9.5 78 1.9 W 43 56 23 30 1006.2 1006.1 0.0
06/06:03am 13.7 5.4 9.2 74 2.3 W 43 61 23 33 1006.6 1006.5 0.0
06/06:00am 13.6 5.6 9.1 74 2.3 W 41 57 22 31 1006.7 1006.6 0.0
06/05:30am 13.7 6.4 8.7 72 2.5 W 37 52 20 28 1007.2 1007.1 0.0
06/05:00am 13.6 7.2 8.7 72 2.5 W 32 54 17 29 1007.4 1007.3 0.0
06/04:41am 13.9 6.9 8.3 69 2.8 W 35 54 19 29 1007.3 1007.2 0.0
06/04:30am 13.8 6.4 8.2 69 2.8 W 37 50 20 27 1007.4 1007.3 0.0
06/04:00am 14.1 5.3 7.9 66 3.1 W 44 65 24 35 1007.7 1007.6 0.0
06/03:43am 14.0 5.3 7.8 66 3.1 WNW 43 61 23 33 1007.8 1007.7 0.0
06/03:30am 14.0 5.3 7.8 66 3.1 WNW 43 56 23 30 1008.2 1008.1 0.0
06/03:02am 13.8 5.1 7.8 67 3.0 WNW 43 61 23 33 1008.8 1008.7 0.0
06/03:00am 13.7 4.9 7.9 68 2.9 WNW 44 61 24 33 1008.8 1008.7 0.0
06/02:30am 14.2 5.9 7.7 65 3.2 WNW 41 59 22 32 1009.0 1008.9 0.0
06/02:09am 14.2 6.2 7.5 64 3.3 WNW 39 57 21 31 1009.4 1009.3 0.0
06/02:00am 14.2 6.2 7.3 63 3.4 WNW 39 52 21 28 1009.8 1009.7 0.0
06/01:42am 14.3 5.5 7.4 63 3.4 WNW 43 61 23 33 1009.8 1009.7 0.0
06/01:30am 14.2 5.8 7.3 63 3.4 WNW 41 56 22 30 1009.9 1009.8 0.0
06/01:00am 14.5 6.5 7.3 62 3.6 WNW 39 63 21 34 1010.3 1010.2 0.0
06/12:30am 14.6 6.9 7.2 61 3.6 WNW 37 59 20 32 1010.6 1010.5 0.0
06/12:15am 14.5 7.6 7.1 61 3.6 W 33 52 18 28 1010.9 1010.8 0.0
06/12:00am 14.4 7.6 7.0 61 3.6 W 32 48 17 26 1011.2 1011.1 0.0
 
Date/Time
EDT
Temp
°C
App
Temp
°C
Dew
Point
Rel
Hum
%
Delta-T
°C
Wind Press
QNH
hPa
Press
MSL
hPa
Rain
since 9 am
mm
Dir
 
Spd
km/h
Gust
km/h
Spd
kts
Gust
kts
05/11:30pm 14.4 6.6 6.7 60 3.7 WNW 37 54 20 29 1011.2 1011.1 0.0
05/11:00pm 14.2 8.3 7.5 64 3.3 WNW 28 43 15 23 1011.7 1011.6 0.0
05/10:30pm 13.6 8.9 7.8 68 2.9 WNW 22 30 12 16 1011.9 1011.8 0.0
05/10:00pm 13.6 8.4 7.4 66 3.0 W 24 35 13 19 1012.4 1012.3 0.0
05/09:30pm 13.5 9.2 7.1 65 3.1 W 19 24 10 13 1012.7 1012.6 0.0
05/09:00pm 14.3 8.9 6.4 59 3.8 W 24 33 13 18 1012.8 1012.7 0.0
05/08:30pm 14.4 8.5 6.0 57 4.0 W 26 35 14 19 1012.8 1012.7 0.0
05/08:00pm 14.6 8.7 5.7 55 4.2 W 26 33 14 18 1013.0 1012.9 0.0
05/07:30pm 14.7 8.5 6.0 56 4.2 W 28 39 15 21 1013.3 1013.1 0.0
05/07:00pm 15.4 7.8 5.9 53 4.6 WSW 35 48 19 26 1013.5 1013.3 0.0
05/06:30pm 16.2 9.1 5.5 49 5.1 W 32 44 17 24 1013.5 1013.3 0.0
05/06:00pm 16.3 8.1 6.7 53 4.7 WSW 39 50 21 27 1013.8 1013.6 0.0
05/05:30pm 16.5 9.5 6.1 50 5.1 WSW 32 43 17 23 1013.8 1013.6 0.0
05/05:00pm 16.7 9.2 6.2 50 5.1 WSW 35 48 19 26 1014.0 1013.8 0.0
05/04:30pm 17.1 9.2 6.3 49 5.3 WSW 37 50 20 27 1014.0 1013.8 0.0
05/04:19pm 18.5 10.3 6.7 46 5.9 WSW 39 52 21 28 1013.9 1013.7 0.0
05/04:08pm 18.6 10.9 5.5 42 6.4 WSW 35 52 19 28 1014.1 1013.9 0.0
05/04:00pm 18.3 10.0 6.2 45 6.0 SW 39 56 21 30 1014.2 1014.0 0.0
05/03:57pm 17.9 9.5 5.5 44 6.0 WSW 39 56 21 30 1014.3 1014.1 0.0
05/03:30pm 17.6 9.8 4.9 43 6.1 WSW 35 48 19 26 1014.4 1014.2 0.0
05/03:00pm 18.8 11.4 6.9 46 6.0 SW 35 52 19 28 1014.4 1014.2 0.0
05/02:57pm 18.5 11.5 6.7 46 5.9 SW 33 52 18 28 1014.4 1014.2 0.0
05/02:30pm 18.9 11.3 5.7 42 6.5 WSW 35 46 19 25 1014.7 1014.5 0.0
05/02:16pm 18.5 10.3 4.7 40 6.6 WSW 37 48 20 26 1014.9 1014.7 0.0
05/02:00pm 18.1 10.4 7.2 49 5.5 WSW 37 48 20 26 1015.2 1015.0 0.0
05/01:30pm 17.4 8.8 6.3 48 5.5 WSW 41 54 22 29 1015.3 1015.1 0.0
05/01:21pm 17.6 10.2 6.8 49 5.4 WSW 35 54 19 29 1015.4 1015.2 0.0
05/01:00pm 18.0 10.4 7.4 50 5.4 SW 37 50 20 27 1015.6 1015.4 0.0
05/12:30pm 16.2 7.8 7.4 56 4.4 SW 41 54 22 29 1016.0 1015.9 0.0
05/12:00pm 16.0 8.5 8.0 59 4.0 WSW 37 52 20 28 1015.9 1015.8 0.0
05/11:47am 13.1 5.8 8.6 74 2.3 WSW 37 56 20 30 1016.0 1015.9 0.0
05/11:30am 15.6 7.9 7.1 57 4.2 SW 37 48 20 26 1015.7 1015.5 0.0
05/11:10am 14.2 6.1 6.8 61 3.6 SW 39 57 21 31 1015.8 1015.6 0.0
05/11:02am 14.2 5.0 7.9 66 3.1 WSW 46 67 25 36 1015.7 1015.5 0.0
05/11:00am 14.7 5.9 8.0 64 3.3 WSW 44 67 24 36 1015.4 1015.2 0.0
05/10:30am 16.3 7.1 6.2 51 4.9 WSW 44 65 24 35 1014.7 1014.5 0.0
05/10:27am 16.0 6.6 5.6 50 5.0 WSW 44 65 24 35 1014.7 1014.5 0.0
05/10:00am 14.7 6.6 6.8 59 3.9 W 39 54 21 29 1014.3 1014.1 0.0
05/09:30am 14.2 5.9 6.3 59 3.8 WSW 39 54 21 29 1013.8 1013.6 0.0
05/09:20am 14.0 7.0 6.1 59 3.8 W 32 54 17 29 1013.8 1013.6 0.0
05/09:00am 13.2 7.4 8.1 71 2.5 W 28 35 15 19 1013.9 1013.7 1.8
05/08:30am 11.9 7.4 8.6 80 1.6 WNW 22 32 12 17 1013.5 1013.3 1.8
05/08:00am 11.0 4.7 7.5 79 1.7 W 30 37 16 20 1012.9 1012.8 1.8
05/07:31am 11.7 5.5 6.0 68 2.7 WNW 28 46 15 25 1012.5 1012.4 1.8
05/07:30am 11.7 5.9 6.2 69 2.6 W 26 41 14 22 1012.4 1012.3 1.8
05/07:00am 11.8 5.1 5.4 65 3.0 W 30 41 16 22 1012.1 1012.0 1.8
05/06:42am 11.7 4.3 5.1 64 3.0 WSW 33 52 18 28 1011.5 1011.4 1.8
05/06:30am 12.2 4.6 5.8 65 3.0 WSW 35 50 19 27 1011.1 1011.0 1.8
05/06:02am 12.5 5.5 7.0 69 2.7 W 33 56 18 30 1010.4 1010.3 1.8
05/06:00am 12.3 5.6 7.2 71 2.5 W 32 43 17 23 1010.4 1010.3 1.8
05/05:37am 12.4 5.3 8.1 75 2.1 WSW 35 54 19 29 1009.8 1009.7 1.8
05/05:30am 12.5 4.8 8.6 77 1.9 WSW 39 54 21 29 1009.6 1009.5 1.8
05/05:10am 12.4 5.6 9.2 81 1.6 WSW 35 54 19 29 1009.0 1008.9 1.8
05/05:00am 12.2 6.0 9.9 86 1.2 WSW 33 46 18 25 1008.8 1008.7 1.8
05/04:44am 11.9 3.9 10.6 92 0.7 WSW 43 61 23 33 1008.4 1008.3 1.8
05/04:30am 12.4 3.6 10.8 90 0.8 WSW 48 63 26 34 1008.1 1008.0 1.8
05/04:17am 12.7 3.4 10.6 87 1.1 WSW 50 69 27 37 1007.6 1007.5 1.8
05/04:10am 12.9 4.6 11.5 91 0.7 WSW 46 61 25 33 1007.4 1007.3 1.8
05/04:08am 13.0 5.1 11.6 91 0.7 WSW 44 61 24 33 1007.3 1007.2 1.8
05/04:00am 13.5 6.2 12.7 95 0.4 WSW 43 70 23 38 1007.1 1007.0 1.8
05/03:57am 13.8 7.7 13.0 95 0.4 WSW 37 67 20 36 1007.1 1007.0 1.6
05/03:48am 14.3 9.0 14.3 100 0.0 W 35 50 19 27 1006.7 1006.6 1.4
05/03:45am 14.3 9.0 14.3 100 0.0 W 35 54 19 29 1006.7 1006.6 1.4
05/03:34am 14.5 9.2 14.3 99 0.1 W 35 50 19 27 1006.4 1006.3 0.4
05/03:30am 14.4 9.1 14.2 99 0.1 WNW 35 50 19 27 1006.3 1006.2 0.4
05/03:12am 14.5 9.6 14.2 98 0.2 W 33 44 18 24 1006.1 1006.0 0.2
05/03:05am 14.9 9.1 13.8 93 0.6 W 37 52 20 28 1006.1 1006.0 0.0
05/03:00am 14.7 8.8 13.7 94 0.6 W 37 54 20 29 1006.0 1005.9 0.0
05/02:51am 14.7 8.2 13.9 95 0.4 W 41 59 22 32 1006.2 1006.1 0.0
05/02:46am 14.9 7.8 13.4 91 0.8 W 43 59 23 32 1006.2 1006.1 0.0
05/02:30am 16.6 8.3 11.5 72 2.8 W 46 74 25 40 1006.2 1006.1 0.0
05/02:03am 18.0 11.9 10.4 61 4.1 W 33 57 18 31 1006.3 1006.2 0.0
05/02:00am 17.8 11.8 10.7 63 3.8 W 33 48 18 26 1006.4 1006.3 0.0
05/01:52am 17.9 12.9 10.8 63 3.8 W 28 48 15 26 1006.4 1006.3 0.0
05/01:30am 17.8 14.2 11.8 68 3.3 W 22 32 12 17 1006.7 1006.6 0.0
05/01:00am 18.0 14.5 12.2 69 3.2 W 22 28 12 15 1007.1 1007.0 0.0
05/12:30am 17.4 14.8 11.9 70 3.0 W 17 24 9 13 1007.3 1007.2 0.0
05/12:00am 16.1 13.8 11.7 75 2.4 W 15 20 8 11 1007.3 1007.2 0.0
 
Date/Time
EDT
Temp
°C
App
Temp
°C
Dew
Point
Rel
Hum
%
Delta-T
°C
Wind Press
QNH
hPa
Press
MSL
hPa
Rain
since 9 am
mm
Dir
 
Spd
km/h
Gust
km/h
Spd
kts
Gust
kts
04/11:30pm 14.9 12.9 11.5 80 1.8 W 13 15 7 8 1007.5 1007.4 0.0
04/11:00pm 15.0 13.0 11.6 80 1.8 WNW 13 13 7 7 1007.9 1007.8 0.0
04/10:30pm 16.4 14.2 12.0 75 2.4 WNW 15 19 8 10 1008.3 1008.2 0.0
04/10:00pm 16.5 14.2 11.9 74 2.5 WNW 15 19 8 10 1008.8 1008.7 0.0
04/09:30pm 16.9 14.6 11.8 72 2.8 WNW 15 20 8 11 1008.9 1008.8 0.0
04/09:00pm 16.7 14.7 11.4 71 2.9 WNW 13 15 7 8 1008.6 1008.5 0.0
04/08:30pm 17.9 15.4 11.0 64 3.7 W 15 17 8 9 1008.7 1008.6 0.0
04/08:00pm 19.0 16.0 10.8 59 4.5 W 17 20 9 11 1008.6 1008.5 0.0
04/07:30pm 20.2 15.5 10.6 54 5.2 WSW 26 39 14 21 1008.4 1008.3 0.0
04/07:00pm 21.3 16.6 10.5 50 5.9 WSW 26 35 14 19 1008.5 1008.4 0.0
04/06:30pm 21.8 15.9 10.3 48 6.3 WSW 32 39 17 21 1008.8 1008.7 0.0
04/06:00pm 22.1 16.2 10.6 48 6.3 W 32 43 17 23 1008.8 1008.7 0.0
04/05:30pm 22.8 16.1 10.9 47 6.6 WSW 37 54 20 29 1009.1 1009.0 0.0
04/05:00pm 22.5 15.3 10.6 47 6.6 WSW 39 52 21 28 1009.1 1009.0 0.0
04/04:30pm 22.8 16.4 10.6 46 6.7 W 35 48 19 26 1009.3 1009.2 0.0
04/04:00pm 23.2 16.9 10.9 46 6.9 W 35 48 19 26 1009.6 1009.5 0.0
04/03:30pm 22.8 16.9 11.2 48 6.5 WSW 33 46 18 25 1010.3 1010.2 0.0
04/03:00pm 22.6 16.6 10.7 47 6.6 WSW 33 46 18 25 1010.8 1010.7 0.0
04/02:42pm 22.7 17.7 11.1 48 6.5 W 28 46 15 25 1011.1 1011.0 0.0
04/02:30pm 22.4 15.9 10.5 47 6.5 W 35 46 19 25 1011.3 1011.2 0.0
04/02:00pm 22.4 16.2 10.2 46 6.7 W 33 43 18 23 1011.7 1011.6 0.0
04/01:30pm 21.5 15.3 10.0 48 6.2 W 33 46 18 25 1012.1 1012.0 0.0
04/01:00pm 21.5 15.8 11.2 52 5.7 W 32 43 17 23 1012.6 1012.5 0.0
04/12:30pm 21.6 16.8 11.6 53 5.6 W 28 43 15 23 1013.0 1012.9 0.0
04/12:00pm 20.5 15.2 11.4 56 5.0 WSW 30 41 16 22 1013.7 1013.5 0.0
04/11:30am 19.3 15.1 11.1 59 4.5 WSW 24 33 13 18 1014.2 1014.0 0.0
04/11:00am 19.5 15.3 12.3 63 4.0 W 26 35 14 19 1014.5 1014.3 0.0
04/10:30am 18.6 15.2 12.6 68 3.4 W 22 33 12 18 1014.5 1014.3 0.0
04/10:00am 16.3 13.4 12.3 77 2.2 WNW 19 24 10 13 1014.7 1014.5 0.0
04/09:30am 16.4 13.9 12.2 76 2.3 WNW 17 22 9 12 1014.8 1014.6 0.0
04/09:00am 15.4 13.9 13.1 86 1.3 W 13 19 7 10 1015.0 1014.8 0.0
04/08:30am 14.0 12.5 13.1 94 0.5 WNW 13 17 7 9 1014.8 1014.6 0.0
04/08:00am 13.2 12.0 12.9 98 0.2 SW 11 13 6 7 1014.8 1014.6 0.0
04/07:30am 11.3 10.9 11.1 99 0.1 SW 4 7 2 4 1014.6 1014.4 0.0
04/07:00am 10.1 9.0 10.1 100 0.0 SSW 6 11 3 6 1014.4 1014.2 0.0
04/06:30am 10.0 8.9 9.9 99 0.1 SSW 6 7 3 4 1014.4 1014.2 0.0
04/06:00am 9.7 8.9 9.6 99 0.0 SSW 4 6 2 3 1014.4 1014.2 0.0
04/05:30am 10.3 8.7 10.1 99 0.1 WSW 9 9 5 5 1014.6 1014.4 0.0
04/05:00am 9.2 7.3 9.2 100 0.0 SW 9 13 5 7 1014.4 1014.2 0.0
04/04:30am 10.0 10.0 9.9 99 0.1 CALM 0 0 0 0 1014.4 1014.2 0.0

Other Formats:

Comma delimited format used in spreadsheet applications
http://www.bom.gov.au/fwo/IDV60801/IDV60801.94891.axf

JavaScript Object Notation format (JSON) in row-major order
http://www.bom.gov.au/fwo/IDV60801/IDV60801.94891.json